Bay Shore, Michigan
Current Conditions -  °F | °C
As of 10:15 PM on Thursday 27 Nov 2014 (Local Time) from KCVX Reporting Station
Light Snow Light Snow  
Wind Chill:   Ceiling: 3300
Heat Index: 19°   Visibility: 10mi
Dew Point: 10°   Wind: 12mph
Humidity: 69%   Direction: 320°NW
Pressure: 30.33"   Gusts: 20mph
Location:  45.36°N, 85.1°W
Report Text: KCVX 280315Z AUTO 32010G17KT 10SM -SN OVC033 M07/M12 A3033 RMK AO2 T10721120
Loading
Personal Weather Stations






























Interactive Weather Map New forecast layout! Learn more

10-Day Weather Forecast

Advertisements
Track Severe Weather on mobile